Time;durP1;ratioP1;P1;durP2;ratioP2;P2;SDS_P1;SDS_P2;PMS_P1;PMS_P2;Temp;Humidity;BMP_temperature;BMP_pressure;BME280_temperature;BME280_humidity;BME280_pressure;Samples;Min_cycle;Max_cycle;Signal;HPM_P1;HPM_P2
2023/09/02 00:01:59;;;;;;;;;;;;;;;16.89;100.00;101618.94;5026797;28;19974;-74
2023/09/02 00:04:25;;;;;;;;;;;;;;;16.81;100.00;101616.94;5028785;28;20015;-74
2023/09/02 00:06:51;;;;;;;;;;;;;;;16.73;100.00;101624.91;5027322;28;19917;-74
2023/09/02 00:09:16;;;;;;;;;;;;;;;16.64;100.00;101610.34;5027040;28;19952;-74
2023/09/02 00:11:41;;;;;;;;;;;;;;;16.56;100.00;101612.88;5026884;28;19935;-74
2023/09/02 00:14:06;;;;;;;;;;;;;;;16.46;100.00;101615.59;5031955;28;19953;-74
2023/09/02 00:16:31;;;;;;;;;;;;;;;16.42;100.00;101617.72;5029752;28;19925;-74
2023/09/02 00:18:57;;;;;;;;;;;;;;;16.40;100.00;101622.44;5037869;28;19920;-74
2023/09/02 00:21:24;;;;;;;;;;;;;;;16.44;100.00;101620.28;5028379;28;19924;-74
2023/09/02 00:23:50;;;;;;;;;;;;;;;16.37;100.00;101630.00;5034658;28;19963;-74
2023/09/02 00:26:15;;;;;;;;;;;;;;;16.36;100.00;101631.81;5031019;28;20039;-74
2023/09/02 00:28:40;;;;;;;;;;;;;;;16.39;100.00;101623.41;5031982;28;19920;-74
2023/09/02 00:31:05;;;;;;;;;;;;;;;16.38;100.00;101626.28;5033792;28;20375;-74
2023/09/02 00:33:31;;;;;;;;;;;;;;;16.34;100.00;101625.69;5029106;28;20319;-74
2023/09/02 00:35:56;;;;;;;;;;;;;;;16.28;100.00;101627.09;5031674;28;20380;-74
2023/09/02 00:38:21;;;;;;;;;;;;;;;16.25;100.00;101627.38;5030055;28;19943;-74
2023/09/02 00:40:49;;;;;;;;;;;;;;;16.19;100.00;101628.78;5032692;28;19920;-74
2023/09/02 00:43:14;;;;;;;;;;;;;;;16.22;100.00;101632.22;5030844;28;19927;-74
2023/09/02 00:45:39;;;;;;;;;;;;;;;16.27;100.00;101640.81;5033308;28;19921;-74
2023/09/02 00:48:05;;;;;;;;;;;;;;;16.32;100.00;101635.81;5030802;28;19920;-74
2023/09/02 00:50:30;;;;;;;;;;;;;;;16.37;100.00;101636.25;5029148;28;19925;-74
2023/09/02 00:52:56;;;;;;;;;;;;;;;16.39;100.00;101631.56;5031149;28;19967;-74
2023/09/02 00:55:21;;;;;;;;;;;;;;;16.44;100.00;101629.28;5023609;28;20023;-74
2023/09/02 00:57:46;;;;;;;;;;;;;;;16.46;100.00;101631.84;5032460;28;19912;-74
2023/09/02 01:00:13;;;;;;;;;;;;;;;16.51;100.00;101635.00;5035079;28;20398;-74
2023/09/02 01:02:38;;;;;;;;;;;;;;;16.53;100.00;101626.75;5028614;28;19971;-74
2023/09/02 01:05:03;;;;;;;;;;;;;;;16.54;100.00;101626.59;5033116;28;20260;-74
2023/09/02 01:07:29;;;;;;;;;;;;;;;16.58;100.00;101619.03;5036818;28;20641;-74
2023/09/02 01:09:54;;;;;;;;;;;;;;;16.49;100.00;101631.56;5030568;28;20393;-74
2023/09/02 01:12:19;;;;;;;;;;;;;;;16.45;100.00;101624.72;5035017;28;20403;-74
2023/09/02 01:14:44;;;;;;;;;;;;;;;16.45;100.00;101624.72;5034895;28;19929;-74
2023/09/02 01:17:10;;;;;;;;;;;;;;;16.47;100.00;101618.19;5032527;28;20397;-74
2023/09/02 01:19:35;;;;;;;;;;;;;;;16.49;100.00;101631.56;5032622;28;20394;-74
2023/09/02 01:22:08;;;;;;;;;;;;;;;16.51;100.00;101629.59;5031887;28;20345;-74
2023/09/02 01:24:43;;;;;;;;;;;;;;;16.46;100.00;101619.16;5027134;28;19928;-74
2023/09/02 01:27:20;;;;;;;;;;;;;;;16.55;100.00;101636.44;5036663;28;20437;-74
2023/09/02 01:30:05;;;;;;;;;;;;;;;16.56;100.00;101629.16;5032814;28;20461;-74
2023/09/02 01:32:34;;;;;;;;;;;;;;;16.56;100.00;101642.72;5030807;28;19927;-74
2023/09/02 01:35:04;;;;;;;;;;;;;;;16.60;100.00;101641.44;5029283;28;19956;-73
2023/09/02 01:37:29;;;;;;;;;;;;;;;16.65;100.00;101641.88;5037451;28;20528;-74
2023/09/02 01:39:54;;;;;;;;;;;;;;;16.67;100.00;101645.31;5031539;28;19921;-73
2023/09/02 01:42:19;;;;;;;;;;;;;;;16.64;100.00;101651.88;5035610;28;19927;-74
2023/09/02 01:44:45;;;;;;;;;;;;;;;16.66;100.00;101654.44;5028957;28;19921;-74
2023/09/02 01:47:10;;;;;;;;;;;;;;;16.67;100.00;101658.88;5035626;28;19916;-74
2023/09/02 01:49:35;;;;;;;;;;;;;;;16.66;100.00;101657.16;5021292;28;20017;-74
2023/09/02 01:52:01;;;;;;;;;;;;;;;16.64;100.00;101654.59;5032081;28;20013;-74
2023/09/02 01:54:26;;;;;;;;;;;;;;;16.63;100.00;101658.31;5038148;28;20027;-74
2023/09/02 01:56:51;;;;;;;;;;;;;;;16.61;100.00;101654.00;5036222;28;19921;-74
2023/09/02 01:59:16;;;;;;;;;;;;;;;16.60;100.00;101655.00;5034159;28;20031;-74
2023/09/02 02:01:42;;;;;;;;;;;;;;;16.53;100.00;101649.28;5038102;28;20517;-74
2023/09/02 02:04:25;;;;;;;;;;;;;;;16.57;100.00;101657.97;5037971;28;20505;-74
2023/09/02 02:06:51;;;;;;;;;;;;;;;16.58;100.00;101660.56;5041218;28;20007;-74
2023/09/02 02:09:18;;;;;;;;;;;;;;;16.59;100.00;101662.28;5032179;28;20383;-74
2023/09/02 02:11:43;;;;;;;;;;;;;;;16.59;100.00;101665.00;5034721;28;20393;-74
2023/09/02 02:14:08;;;;;;;;;;;;;;;16.61;100.00;101656.72;5036553;28;19963;-74
2023/09/02 02:16:33;;;;;;;;;;;;;;;16.62;100.00;101659.31;5039223;28;20458;-74
2023/09/02 02:18:59;;;;;;;;;;;;;;;16.61;100.00;101663.00;5036410;28;20407;-74
2023/09/02 02:21:24;;;;;;;;;;;;;;;16.64;100.00;101670.00;5039465;28;19924;-74
2023/09/02 02:23:49;;;;;;;;;;;;;;;16.60;100.00;101665.84;5034787;28;20020;-74
2023/09/02 02:26:15;;;;;;;;;;;;;;;16.58;100.00;101670.53;5034827;28;19924;-74
2023/09/02 02:28:40;;;;;;;;;;;;;;;16.58;100.00;101673.25;5034742;28;19928;-74
2023/09/02 02:31:06;;;;;;;;;;;;;;;16.60;100.00;101679.38;5032549;28;19929;-74
2023/09/02 02:33:32;;;;;;;;;;;;;;;16.61;100.00;101678.41;5036278;28;19974;-74
2023/09/02 02:35:57;;;;;;;;;;;;;;;16.61;100.00;101683.81;5031189;28;19924;-73
2023/09/02 02:38:22;;;;;;;;;;;;;;;16.60;100.00;101682.09;5027124;28;19967;-74
2023/09/02 02:40:48;;;;;;;;;;;;;;;16.55;100.00;101677.09;5031623;28;19970;-74
2023/09/02 02:43:13;;;;;;;;;;;;;;;16.49;100.00;101678.53;5032613;28;19974;-74
2023/09/02 02:45:38;;;;;;;;;;;;;;;16.44;100.00;101677.19;5030490;28;19921;-74
2023/09/02 02:48:03;;;;;;;;;;;;;;;16.35;100.00;101676.19;5030469;28;19921;-74
2023/09/02 02:50:28;;;;;;;;;;;;;;;16.26;100.00;101679.72;5032171;28;19925;-73
2023/09/02 02:52:54;;;;;;;;;;;;;;;16.19;100.00;101682.97;5035926;28;20434;-74
2023/09/02 02:55:19;;;;;;;;;;;;;;;16.19;100.00;101677.56;5035792;28;20410;-73
2023/09/02 02:57:44;;;;;;;;;;;;;;;16.21;100.00;101682.81;5031625;28;19913;-74
2023/09/02 03:00:10;;;;;;;;;;;;;;;16.22;100.00;101679.13;5034960;28;19930;-74
2023/09/02 03:02:35;;;;;;;;;;;;;;;16.24;100.00;101679.00;5033397;28;19952;-74
2023/09/02 03:05:00;;;;;;;;;;;;;;;16.26;100.00;101690.56;5031693;28;20704;-74
2023/09/02 03:07:25;;;;;;;;;;;;;;;16.22;100.00;101683.69;5037291;28;19925;-74
2023/09/02 03:09:51;;;;;;;;;;;;;;;16.19;100.00;101684.81;5034536;28;19925;-74
2023/09/02 03:12:16;;;;;;;;;;;;;;;16.21;100.00;101677.41;5033797;28;19929;-74
2023/09/02 03:14:41;;;;;;;;;;;;;;;16.10;100.00;101643.16;5039183;28;19921;-74
2023/09/02 03:17:06;;;;;;;;;;;;;;;16.32;100.00;101669.19;5035020;28;19935;-74
2023/09/02 03:19:32;;;;;;;;;;;;;;;16.33;100.00;101664.63;5037396;28;19920;-74
2023/09/02 03:21:57;;;;;;;;;;;;;;;16.31;100.00;101674.72;5035238;28;19964;-74
2023/09/02 03:24:22;;;;;;;;;;;;;;;16.26;100.00;101672.44;5036256;28;20031;-74
2023/09/02 03:26:47;;;;;;;;;;;;;;;16.18;100.00;101680.38;5032729;28;20542;-74
2023/09/02 03:29:12;;;;;;;;;;;;;;;16.08;100.00;101676.78;5041595;28;19924;-74
2023/09/02 03:31:38;;;;;;;;;;;;;;;16.08;100.00;101672.22;5032305;28;19924;-74
2023/09/02 03:34:03;;;;;;;;;;;;;;;16.08;100.00;101674.94;5010399;28;19921;-74
2023/09/02 03:36:28;;;;;;;;;;;;;;;15.98;100.00;101680.31;5032439;28;19921;-74
2023/09/02 03:38:53;;;;;;;;;;;;;;;15.93;100.00;101679.84;5032821;28;19961;-74
2023/09/02 03:41:19;;;;;;;;;;;;;;;15.89;100.00;101675.72;5033344;28;20282;-74
2023/09/02 03:43:45;;;;;;;;;;;;;;;15.91;100.00;101676.41;5032156;28;20268;-74
2023/09/02 03:46:10;;;;;;;;;;;;;;;15.94;100.00;101684.25;5035874;28;19920;-74
2023/09/02 03:48:35;;;;;;;;;;;;;;;15.99;100.00;101682.03;5035709;28;20033;-74
2023/09/02 03:51:03;;;;;;;;;;;;;;;16.05;100.00;101683.31;5033447;28;19924;-73
2023/09/02 03:53:29;;;;;;;;;;;;;;;16.11;100.00;101687.38;5037724;28;19920;-74
2023/09/02 03:55:54;;;;;;;;;;;;;;;16.14;100.00;101690.66;5034806;28;19930;-74
2023/09/02 03:58:19;;;;;;;;;;;;;;;16.07;100.00;101694.88;5037518;28;20201;-73
2023/09/02 04:00:45;;;;;;;;;;;;;;;16.02;100.00;101695.28;5034006;28;19926;-74
2023/09/02 04:03:12;;;;;;;;;;;;;;;16.06;100.00;101687.75;5027809;28;19921;-74
2023/09/02 04:05:37;;;;;;;;;;;;;;;16.10;100.00;101694.63;5028012;28;19924;-74
2023/09/02 04:08:03;;;;;;;;;;;;;;;16.16;100.00;101695.91;5029441;28;19951;-74
2023/09/02 04:10:28;;;;;;;;;;;;;;;16.23;100.00;101693.53;5034412;28;19935;-74
2023/09/02 04:12:53;;;;;;;;;;;;;;;16.28;100.00;101694.00;5035256;28;19960;-74
2023/09/02 04:15:19;;;;;;;;;;;;;;;16.31;100.00;101697.28;5025707;28;20367;-74
2023/09/02 04:17:44;;;;;;;;;;;;;;;16.31;100.00;101700.00;5034303;28;20018;-73
2023/09/02 04:20:10;;;;;;;;;;;;;;;16.33;100.00;101703.44;5035987;28;20061;-74
2023/09/02 04:22:35;;;;;;;;;;;;;;;16.35;100.00;101711.41;5039020;28;20125;-74
2023/09/02 04:25:00;;;;;;;;;;;;;;;16.34;100.00;101710.56;5036729;28;20422;-74
2023/09/02 04:27:26;;;;;;;;;;;;;;;16.29;100.00;101707.41;5035176;28;19916;-74
2023/09/02 04:29:51;;;;;;;;;;;;;;;16.28;100.00;101704.84;5033779;28;19970;-74
2023/09/02 04:32:16;;;;;;;;;;;;;;;16.15;100.00;101697.78;5032880;28;19925;-74
2023/09/02 04:34:42;;;;;;;;;;;;;;;16.26;100.00;101718.50;5036915;28;19927;-74
2023/09/02 04:37:07;;;;;;;;;;;;;;;16.29;100.00;101714.66;5031456;28;19944;-74
2023/09/02 04:39:32;;;;;;;;;;;;;;;16.28;100.00;101712.97;5027233;28;20466;-74
2023/09/02 04:41:58;;;;;;;;;;;;;;;16.27;100.00;101719.38;5032821;28;19925;-74
2023/09/02 04:44:23;;;;;;;;;;;;;;;16.25;100.00;101724.91;5038964;28;19924;-74
2023/09/02 04:46:48;;;;;;;;;;;;;;;16.24;100.00;101725.06;5035096;28;19960;-74
2023/09/02 04:49:13;;;;;;;;;;;;;;;16.23;100.00;101726.06;5033182;28;20036;-74
2023/09/02 04:51:38;;;;;;;;;;;;;;;16.22;100.00;101733.31;5034530;28;19935;-74
2023/09/02 04:54:04;;;;;;;;;;;;;;;16.23;100.00;101731.47;5027799;28;20269;-74
2023/09/02 04:56:29;;;;;;;;;;;;;;;16.18;100.00;101731.88;5034455;28;19925;-74
2023/09/02 04:58:55;;;;;;;;;;;;;;;16.14;100.00;101734.00;5034321;28;19921;-74
2023/09/02 05:01:22;;;;;;;;;;;;;;;16.14;100.00;101728.56;5038200;28;19928;-74
2023/09/02 05:03:47;;;;;;;;;;;;;;;16.15;100.00;101733.00;5031437;28;19917;-74
2023/09/02 05:06:13;;;;;;;;;;;;;;;15.91;100.00;101700.78;5035341;28;20274;-74
2023/09/02 05:08:38;;;;;;;;;;;;;;;16.13;100.00;101732.28;5033925;28;19920;-74
2023/09/02 05:11:03;;;;;;;;;;;;;;;16.11;100.00;101733.41;5036881;28;19979;-73
2023/09/02 05:13:29;;;;;;;;;;;;;;;16.00;100.00;101735.19;5034088;28;19967;-73
2023/09/02 05:15:54;;;;;;;;;;;;;;;15.92;100.00;101739.56;5028313;28;20014;-74
2023/09/02 05:18:19;;;;;;;;;;;;;;;15.91;100.00;101745.97;5036506;28;19924;-73
2023/09/02 05:20:44;;;;;;;;;;;;;;;15.91;100.00;101749.53;5037648;28;19929;-73
2023/09/02 05:23:11;;;;;;;;;;;;;;;15.97;100.00;101754.41;5034853;28;19925;-73
2023/09/02 05:25:36;;;;;;;;;;;;;;;16.01;100.00;101736.91;5027009;28;19921;-73
2023/09/02 05:28:01;;;;;;;;;;;;;;;16.02;100.00;101752.19;5035479;28;20370;-73
2023/09/02 05:30:28;;;;;;;;;;;;;;;16.04;100.00;101754.75;5034486;28;20445;-73
2023/09/02 05:32:53;;;;;;;;;;;;;;;16.08;100.00;101758.91;5032193;28;19929;-73
2023/09/02 05:35:18;;;;;;;;;;;;;;;16.12;100.00;101757.66;5033557;28;19925;-73
2023/09/02 05:37:44;;;;;;;;;;;;;;;16.16;100.00;101760.94;5029383;28;20390;-73
2023/09/02 05:40:10;;;;;;;;;;;;;;;16.15;100.00;101761.97;5032634;28;19921;-73
2023/09/02 05:42:35;;;;;;;;;;;;;;;16.15;100.00;101776.34;5031639;28;19925;-74
2023/09/02 05:45:00;;;;;;;;;;;;;;;16.16;100.00;101779.91;5034176;28;20261;-73
2023/09/02 05:47:25;;;;;;;;;;;;;;;16.14;100.00;101779.19;5035722;28;20286;-74
2023/09/02 05:49:51;;;;;;;;;;;;;;;16.15;100.00;101781.75;5034519;28;19921;-73
2023/09/02 05:52:16;;;;;;;;;;;;;;;16.20;100.00;101778.66;5034966;28;19959;-73
2023/09/02 05:54:41;;;;;;;;;;;;;;;16.27;100.00;101793.38;5030726;28;19972;-74
2023/09/02 05:57:06;;;;;;;;;;;;;;;16.34;100.00;101789.16;5032195;28;20036;-73
2023/09/02 05:59:31;;;;;;;;;;;;;;;16.40;100.00;101787.75;5034653;28;19939;-73
2023/09/02 06:01:57;;;;;;;;;;;;;;;16.44;100.00;101789.19;5028699;28;19920;-73
2023/09/02 06:04:22;;;;;;;;;;;;;;;16.48;100.00;101785.22;5035379;28;20011;-73
2023/09/02 06:06:47;;;;;;;;;;;;;;;16.46;100.00;101786.34;5032603;28;20501;-73
2023/09/02 06:09:13;;;;;;;;;;;;;;;16.41;100.00;101792.19;5031265;28;20395;-73
2023/09/02 06:11:38;;;;;;;;;;;;;;;16.39;100.00;101793.31;5034587;28;20583;-74
2023/09/02 06:14:03;;;;;;;;;;;;;;;16.42;100.00;101798.47;5012831;28;19921;-73
2023/09/02 06:16:29;;;;;;;;;;;;;;;16.47;100.00;101798.91;5029510;28;19920;-73
2023/09/02 06:18:54;;;;;;;;;;;;;;;16.56;100.00;101802.66;5014791;28;19925;-74
2023/09/02 06:21:19;;;;;;;;;;;;;;;16.61;100.00;101803.09;5013035;28;20425;-73
2023/09/02 06:23:44;;;;;;;;;;;;;;;16.64;100.00;101806.44;5030518;28;19921;-74
2023/09/02 06:26:11;;;;;;;;;;;;;;;16.67;100.00;101810.69;5014779;28;19924;-73
2023/09/02 06:28:36;;;;;;;;;;;;;;;16.70;100.00;101823.13;5031263;28;19955;-73
2023/09/02 06:31:06;;;;;;;;;;;;;;;16.75;100.00;101829.88;5013576;28;19929;-73
2023/09/02 06:33:31;;;;;;;;;;;;;;;16.82;100.00;101824.75;5029625;28;19924;-73
2023/09/02 06:35:56;;;;;;;;;;;;;;;16.90;100.00;101827.66;5032845;28;19968;-73
2023/09/02 06:38:21;;;;;;;;;;;;;;;16.93;100.00;101837.34;5033584;28;19920;-74
2023/09/02 06:40:46;;;;;;;;;;;;;;;16.99;100.00;101834.13;5030690;28;19921;-73
2023/09/02 06:43:12;;;;;;;;;;;;;;;16.94;100.00;101839.06;5031245;28;20556;-73
2023/09/02 06:45:37;;;;;;;;;;;;;;;16.98;100.00;101848.69;5028613;28;19928;-73
2023/09/02 06:48:02;;;;;;;;;;;;;;;16.99;100.00;101833.25;5019764;28;20393;-73
2023/09/02 06:50:28;;;;;;;;;;;;;;;17.09;100.00;101845.00;5029951;28;20668;-73
2023/09/02 06:52:53;;;;;;;;;;;;;;;17.13;100.00;101842.88;5016683;28;20050;-74
2023/09/02 06:55:18;;;;;;;;;;;;;;;17.26;100.00;101856.19;5026966;28;19931;-73
2023/09/02 06:57:44;;;;;;;;;;;;;;;17.32;100.00;101855.63;5029998;28;19987;-73
2023/09/02 07:00:09;;;;;;;;;;;;;;;17.17;100.00;101828.91;5031503;28;20015;-74
2023/09/02 07:02:34;;;;;;;;;;;;;;;17.50;100.00;101872.94;5027725;28;19999;-73
2023/09/02 07:05:00;;;;;;;;;;;;;;;17.59;100.00;101870.41;5023387;28;19964;-73
2023/09/02 07:07:25;;;;;;;;;;;;;;;17.71;100.00;101879.28;5009136;28;20012;-73
2023/09/02 07:09:50;;;;;;;;;;;;;;;17.66;100.00;101872.41;5027870;28;19916;-73
2023/09/02 07:12:16;;;;;;;;;;;;;;;17.68;100.00;101878.56;5017797;28;19921;-73
2023/09/02 07:14:41;;;;;;;;;;;;;;;17.68;100.00;101886.72;5017425;28;19924;-73
2023/09/02 07:17:06;;;;;;;;;;;;;;;17.56;100.00;101889.69;5024887;28;19999;-73
2023/09/02 07:19:31;;;;;;;;;;;;;;;17.58;100.00;101898.56;5023674;28;19971;-74
2023/09/02 07:21:57;;;;;;;;;;;;;;;17.69;100.00;101895.72;5030442;28;20359;-73
2023/09/02 07:24:22;;;;;;;;;;;;;;;17.79;100.00;101904.72;5013591;28;20260;-74
2023/09/02 07:26:48;;;;;;;;;;;;;;;17.92;100.00;101907.16;5022714;28;19921;-73
2023/09/02 07:29:13;;;;;;;;;;;;;;;17.98;100.00;101906.63;5025159;28;20375;-74
2023/09/02 07:31:38;;;;;;;;;;;;;;;18.03;100.00;101910.78;5026078;28;19975;-74
2023/09/02 07:34:03;;;;;;;;;;;;;;;17.90;100.00;101911.88;5010932;28;20405;-73
2023/09/02 07:36:29;;;;;;;;;;;;;;;17.94;100.00;101920.63;5008318;28;20508;-73
2023/09/02 07:38:54;;;;;;;;;;;;;;;18.01;100.00;101926.38;5028729;28;20379;-74
2023/09/02 07:41:19;;;;;;;;;;;;;;;18.11;100.00;101925.38;5027494;28;19927;-74
2023/09/02 07:43:44;;;;;;;;;;;;;;;18.19;100.00;101921.09;5023821;28;19920;-74
2023/09/02 07:46:10;;;;;;;;;;;;;;;18.24;100.00;101921.53;5027062;28;19934;-74
2023/09/02 07:48:35;;;;;;;;;;;;;;;18.28;100.00;101926.53;5021501;28;19924;-74
2023/09/02 07:51:00;;;;;;;;;;;;;;;18.31;100.00;101938.13;5009457;28;20290;-73
2023/09/02 07:53:26;;;;;;;;;;;;;;;18.36;100.00;101944.81;5023048;28;19921;-73
2023/09/02 07:55:51;;;;;;;;;;;;;;;18.41;100.00;101952.53;5026058;28;20754;-74
2023/09/02 07:58:16;;;;;;;;;;;;;;;18.38;100.00;101948.25;5028443;28;20359;-74
2023/09/02 08:00:41;;;;;;;;;;;;;;;18.24;100.00;101954.16;5018939;28;20341;-74
2023/09/02 08:03:06;;;;;;;;;;;;;;;18.25;100.00;101958.59;5027906;28;20356;-74
2023/09/02 08:05:32;;;;;;;;;;;;;;;18.23;100.00;101953.28;5025583;28;20371;-74
2023/09/02 08:07:57;;;;;;;;;;;;;;;18.20;100.00;101950.84;5012553;28;19971;-74
2023/09/02 08:10:22;;;;;;;;;;;;;;;18.30;100.00;101958.97;5010652;28;19924;-74
2023/09/02 08:12:47;;;;;;;;;;;;;;;18.37;100.00;101951.13;5023641;28;21279;-74
2023/09/02 08:15:13;;;;;;;;;;;;;;;18.48;100.00;101958.28;5028327;28;19956;-74
2023/09/02 08:17:39;;;;;;;;;;;;;;;18.57;100.00;101960.13;5024248;28;20012;-74
2023/09/02 08:20:08;;;;;;;;;;;;;;;18.69;100.00;101958.09;5041396;28;19940;-73
2023/09/02 08:22:33;;;;;;;;;;;;;;;18.77;100.00;101966.38;5025589;28;20316;-74
2023/09/02 08:24:58;;;;;;;;;;;;;;;18.78;100.00;101964.53;5024289;28;19925;-74
2023/09/02 08:27:24;;;;;;;;;;;;;;;18.86;100.00;101960.06;5026222;28;20412;-75
2023/09/02 08:29:49;;;;;;;;;;;;;;;18.86;100.00;101962.78;5021835;28;19917;-74
2023/09/02 08:32:14;;;;;;;;;;;;;;;18.93;100.00;101967.66;5023678;28;19925;-74
2023/09/02 08:34:39;;;;;;;;;;;;;;;18.91;100.00;101966.94;5025429;28;19924;-74
2023/09/02 08:37:05;;;;;;;;;;;;;;;18.95;100.00;101962.91;5029107;28;19921;-74
2023/09/02 08:39:30;;;;;;;;;;;;;;;18.96;100.00;101957.34;5011165;28;19927;-74
2023/09/02 08:41:55;;;;;;;;;;;;;;;18.83;100.00;101957.66;5030022;28;19920;-74
2023/09/02 08:44:21;;;;;;;;;;;;;;;18.76;100.00;101964.66;5024062;28;19921;-74
2023/09/02 08:46:47;;;;;;;;;;;;;;;18.67;100.00;101969.13;5023801;28;20040;-74
2023/09/02 08:49:13;;;;;;;;;;;;;;;18.70;100.00;101970.69;5030633;28;19925;-74
2023/09/02 08:51:38;;;;;;;;;;;;;;;18.74;100.00;101977.56;5030733;28;20007;-74
2023/09/02 08:54:03;;;;;;;;;;;;;;;18.82;100.00;101976.81;5028714;28;19921;-74
2023/09/02 08:56:29;;;;;;;;;;;;;;;18.87;100.00;101969.09;5023799;28;19933;-74
2023/09/02 08:58:54;;;;;;;;;;;;;;;18.95;100.00;101969.25;5024420;28;20044;-74
2023/09/02 09:01:20;;;;;;;;;;;;;;;18.96;100.00;101973.69;5028993;28;19920;-74
2023/09/02 09:03:45;;;;;;;;;;;;;;;19.01;100.00;101968.66;5025548;28;20363;-74
2023/09/02 09:06:10;;;;;;;;;;;;;;;19.08;100.00;101959.88;5027110;28;19923;-74
2023/09/02 09:08:36;;;;;;;;;;;;;;;19.09;100.00;101959.75;5009884;28;19963;-74
2023/09/02 09:11:01;;;;;;;;;;;;;;;19.08;100.00;101968.03;5028180;28;20011;-73
2023/09/02 09:13:26;;;;;;;;;;;;;;;19.14;100.00;101973.78;5025676;28;19921;-75
2023/09/02 09:15:52;;;;;;;;;;;;;;;19.15;100.00;101978.22;5006431;28;20027;-75
2023/09/02 09:18:18;;;;;;;;;;;;;;;19.16;100.00;101973.63;5028578;28;19921;-75
2023/09/02 09:20:43;;;;;;;;;;;;;;;19.26;100.00;101976.31;5024768;28;19921;-75
2023/09/02 09:23:08;;;;;;;;;;;;;;;19.37;100.00;101980.69;5026969;28;20275;-72
2023/09/02 09:25:34;;;;;;;;;;;;;;;19.42;100.00;101976.53;5022160;28;19917;-73
2023/09/02 09:28:06;;;;;;;;;;;;;;;19.33;100.00;101991.03;5021611;28;19925;-74
2023/09/02 09:30:31;;;;;;;;;;;;;;;19.31;100.00;101993.06;5057689;22;20314;-75
2023/09/02 09:32:57;;;;;;;;;;;;;;;19.23;100.00;101999.25;5052369;28;19920;-74
2023/09/02 09:35:23;;;;;;;;;;;;;;;19.31;100.00;102003.94;5066185;28;19916;-75
2023/09/02 09:37:51;;;;;;;;;;;;;;;19.42;100.00;102000.16;5047285;28;19998;-77
2023/09/02 09:40:19;;;;;;;;;;;;;;;19.46;100.00;102015.22;5046938;28;20178;-77
2023/09/02 09:42:45;;;;;;;;;;;;;;;19.49;100.00;102018.47;5044330;28;19928;-74
2023/09/02 09:45:10;;;;;;;;;;;;;;;19.39;100.00;102022.25;5064530;28;19962;-72
2023/09/02 09:47:35;;;;;;;;;;;;;;;19.38;100.00;102018.69;5048103;28;20297;-73
2023/09/02 09:50:11;;;;;;;;;;;;;;;19.51;100.00;102021.06;5047230;28;20367;-73
2023/09/02 09:52:36;;;;;;;;;;;;;;;19.62;100.00;102023.59;5045793;28;19931;-72
2023/09/02 09:55:01;;;;;;;;;;;;;;;19.55;100.00;102033.38;5050240;28;19916;-72
2023/09/02 09:57:29;;;;;;;;;;;;;;;19.62;100.00;102031.75;5042896;28;19924;-72
2023/09/02 09:59:55;;;;;;;;;;;;;;;19.76;100.00;102027.66;5047741;28;19927;-73
2023/09/02 10:02:21;;;;;;;;;;;;;;;19.79;100.00;102023.81;5050258;28;19928;-72
2023/09/02 10:04:50;;;;;;;;;;;;;;;19.85;100.00;102034.09;5051925;28;19925;-72
2023/09/02 10:07:16;;;;;;;;;;;;;;;19.88;100.00;102041.13;5049055;28;20030;-72
2023/09/02 10:09:42;;;;;;;;;;;;;;;19.92;100.00;102048.84;5064340;28;19935;-72
2023/09/02 10:12:11;;;;;;;;;;;;;;;19.99;100.00;102045.53;5046688;28;19924;-72
2023/09/02 10:14:38;;;;;;;;;;;;;;;20.00;100.00;102047.25;5051649;28;19924;-72
2023/09/02 10:17:04;;;;;;;;;;;;;;;20.08;100.00;102053.63;5049370;28;19920;-71
2023/09/02 10:19:29;;;;;;;;;;;;;;;20.16;100.00;102047.41;5050867;28;19982;-72
2023/09/02 10:21:55;;;;;;;;;;;;;;;20.26;100.00;102044.63;5046463;28;20699;-72
2023/09/02 10:24:20;;;;;;;;;;;;;;;20.47;100.00;102046.22;5049227;28;20424;-73
2023/09/02 10:26:47;;;;;;;;;;;;;;;20.70;100.00;102053.91;5056397;28;19947;-73
2023/09/02 10:29:13;;;;;;;;;;;;;;;20.88;100.00;102060.22;5055762;28;20503;-72
2023/09/02 10:31:40;;;;;;;;;;;;;;;20.76;100.00;102056.03;5074927;28;20023;-72
2023/09/02 10:34:11;;;;;;;;;;;;;;;20.65;100.00;102057.13;5058374;28;20401;-72
2023/09/02 10:36:37;;;;;;;;;;;;;;;20.80;100.00;102071.06;5048738;28;20532;-72
2023/09/02 10:39:03;;;;;;;;;;;;;;;20.83;100.00;102066.16;5048297;28;19926;-73
2023/09/02 10:41:28;;;;;;;;;;;;;;;20.88;100.00;102068.41;5050368;28;19957;-72
2023/09/02 10:43:54;;;;;;;;;;;;;;;20.83;100.00;102060.72;5050582;28;20298;-72
2023/09/02 10:46:19;;;;;;;;;;;;;;;20.62;100.00;102066.47;5065120;28;19921;-72
2023/09/02 10:48:44;;;;;;;;;;;;;;;20.72;100.00;102070.97;5057418;28;20029;-73
2023/09/02 10:51:10;;;;;;;;;;;;;;;20.78;100.00;102073.97;5051996;28;19968;-72
2023/09/02 10:54:05;;;;;;;;;;;;;;;20.81;100.00;102070.94;5035805;28;19920;-78
2023/09/02 10:56:31;;;;;;;;;;;;;;;20.78;100.00;102065.78;5040948;28;20181;-72
2023/09/02 10:58:57;;;;;;;;;;;;;;;21.04;100.00;102075.88;5048977;28;20007;-73
2023/09/02 11:01:22;;;;;;;;;;;;;;;21.19;100.00;102073.44;5067695;28;20297;-75
2023/09/02 11:03:54;;;;;;;;;;;;;;;21.37;100.00;102070.66;5049785;28;19917;-72
2023/09/02 11:06:19;;;;;;;;;;;;;;;21.53;100.00;102079.94;5050138;28;19924;-72
2023/09/02 11:08:49;;;;;;;;;;;;;;;21.48;100.00;102072.25;5044115;28;20280;-73
2023/09/02 11:11:18;;;;;;;;;;;;;;;21.54;100.00;102085.28;5051308;28;19931;-74
2023/09/02 11:14:01;;;;;;;;;;;;;;;21.77;100.00;102081.13;5050532;28;20239;-73
2023/09/02 11:16:27;;;;;;;;;;;;;;;22.15;100.00;102078.91;5048012;28;19920;-72
2023/09/02 11:18:53;;;;;;;;;;;;;;;21.98;100.00;102073.34;5046927;28;20404;-72
2023/09/02 11:21:40;;;;;;;;;;;;;;;21.99;100.00;102074.22;5049669;28;19928;-72
2023/09/02 11:24:14;;;;;;;;;;;;;;;21.67;100.00;102065.72;5048584;28;20002;-74
2023/09/02 11:27:09;;;;;;;;;;;;;;;21.71;100.00;102074.44;5047697;28;19920;-73
2023/09/02 11:29:34;;;;;;;;;;;;;;;21.83;100.00;102075.88;5053390;28;20547;-73
2023/09/02 11:32:03;;;;;;;;;;;;;;;21.88;100.00;102070.75;5048184;28;19972;-73
2023/09/02 11:34:28;;;;;;;;;;;;;;;21.98;100.00;102073.34;5049656;28;19924;-73
2023/09/02 11:36:57;;;;;;;;;;;;;;;22.50;100.00;102068.75;5045295;28;19928;-73
2023/09/02 11:39:26;;;;;;;;;;;;;;;22.82;100.00;102064.28;5043160;28;19924;-74
2023/09/02 11:42:10;;;;;;;;;;;;;;;23.14;100.00;102068.03;5048498;28;19924;-73
2023/09/02 11:44:35;;;;;;;;;;;;;;;23.37;100.00;102070.09;5047567;28;20322;-73
2023/09/02 11:47:00;;;;;;;;;;;;;;;23.24;100.00;102067.88;5047709;28;19920;-73
2023/09/02 11:49:26;;;;;;;;;;;;;;;22.97;100.00;102074.56;5048615;28;19939;-72
2023/09/02 11:51:51;;;;;;;;;;;;;;;22.96;100.00;102070.13;5051493;28;20709;-72
2023/09/02 11:54:17;;;;;;;;;;;;;;;22.55;100.00;102074.53;5047792;28;20391;-74
2023/09/02 11:56:45;;;;;;;;;;;;;;;22.16;100.00;102083.34;5048095;28;19927;-72
2023/09/02 11:59:20;;;;;;;;;;;;;;;22.06;100.00;102097.16;5049839;28;19928;-72
2023/09/02 12:01:46;;;;;;;;;;;;;;;22.15;100.00;102089.84;5053033;28;19921;-71
2023/09/02 12:04:11;;;;;;;;;;;;;;;22.20;100.00;102100.25;5051813;28;19962;-72
2023/09/02 12:06:36;;;;;;;;;;;;;;;22.11;100.00;102100.25;5049782;28;19921;-72
2023/09/02 12:09:01;;;;;;;;;;;;;;;22.50;100.00;102095.25;5051990;28;19920;-72
2023/09/02 12:11:27;;;;;;;;;;;;;;;22.86;100.00;102101.25;5050784;28;19964;-71
2023/09/02 12:13:52;;;;;;;;;;;;;;;22.86;100.00;102106.75;5067578;28;19920;-71
2023/09/02 12:16:17;;;;;;;;;;;;;;;22.73;100.00;102109.13;5050900;28;20025;-72
2023/09/02 12:18:43;;;;;;;;;;;;;;;22.89;100.00;102111.88;5046548;28;20283;-72
2023/09/02 12:21:08;;;;;;;;;;;;;;;23.06;100.00;102112.75;5051337;28;19924;-74
2023/09/02 12:23:33;;;;;;;;;;;;;;;23.30;100.00;102116.50;5043973;28;19920;-72